Time;durP1;ratioP1;P1;durP2;ratioP2;P2;SDS_P1;SDS_P2;PMS_P1;PMS_P2;Temp;Humidity;BMP_temperature;BMP_pressure;BME280_temperature;BME280_humidity;BME280_pressure;Samples;Min_cycle;Max_cycle;Signal;HPM_P1;HPM_P2
2021/08/23 00:02:18;;;;;;;3.20;2.50;;;17.40;99.90;;;;;;5001854;28;20219;-82
2021/08/23 00:04:43;;;;;;;2.87;2.67;;;17.20;99.90;;;;;;5000480;28;20186;-82
2021/08/23 00:07:09;;;;;;;2.57;2.33;;;17.20;99.90;;;;;;5000853;28;20309;-82
2021/08/23 00:09:35;;;;;;;4.47;3.20;;;17.20;99.90;;;;;;5001161;28;20192;-82
2021/08/23 00:12:01;;;;;;;3.67;2.83;;;17.20;99.90;;;;;;5000803;28;20223;-82
2021/08/23 00:14:27;;;;;;;3.03;2.83;;;17.30;99.90;;;;;;5000770;28;20191;-82
2021/08/23 00:16:53;;;;;;;4.03;2.80;;;17.30;99.90;;;;;;4999834;28;20203;-82
2021/08/23 00:19:20;;;;;;;3.27;2.83;;;17.30;99.90;;;;;;5001290;28;20168;-82
2021/08/23 00:21:46;;;;;;;4.00;2.90;;;17.20;99.90;;;;;;5000724;28;20262;-82
2021/08/23 00:24:21;;;;;;;3.20;2.80;;;17.20;99.90;;;;;;5000866;28;20199;-82
2021/08/23 00:26:55;;;;;;;3.93;2.97;;;17.10;99.90;;;;;;5000731;28;20190;-82
2021/08/23 00:29:22;;;;;;;2.93;2.57;;;17.10;99.90;;;;;;4999299;28;20279;-82
2021/08/23 00:31:48;;;;;;;2.90;2.67;;;17.20;99.90;;;;;;5001849;28;20222;-82
2021/08/23 00:34:14;;;;;;;3.90;2.90;;;17.00;99.90;;;;;;5000965;28;20168;-82
2021/08/23 00:36:40;;;;;;;3.30;3.00;;;17.00;99.90;;;;;;4998934;28;20261;-82
2021/08/23 00:39:08;;;;;;;4.37;3.10;;;17.00;99.90;;;;;;4999381;28;20183;-82
2021/08/23 00:41:35;;;;;;;4.70;2.87;;;17.00;99.90;;;;;;4998710;28;20692;-82
2021/08/23 00:44:01;;;;;;;3.07;2.77;;;17.10;99.90;;;;;;5000483;28;20650;-82
2021/08/23 00:46:28;;;;;;;3.67;2.67;;;17.10;99.90;;;;;;5000992;28;20625;-82
2021/08/23 00:48:53;;;;;;;3.10;2.60;;;17.10;99.90;;;;;;5000863;28;20195;-82
2021/08/23 00:51:20;;;;;;;3.37;2.60;;;17.00;99.90;;;;;;4999992;28;20205;-82
2021/08/23 00:53:47;;;;;;;5.47;3.10;;;16.90;99.90;;;;;;5000393;28;20188;-82
2021/08/23 00:56:12;;;;;;;2.57;2.37;;;17.00;99.90;;;;;;4998864;28;20654;-82
2021/08/23 00:58:41;;;;;;;3.33;3.00;;;17.00;99.90;;;;;;4999883;28;20175;-82
2021/08/23 01:01:20;;;;;;;2.83;2.40;;;17.00;99.90;;;;;;5000298;28;20199;-82
2021/08/23 01:04:07;;;;;;;6.03;3.10;;;17.10;99.90;;;;;;4998956;28;20175;-82
2021/08/23 01:06:33;;;;;;;6.60;2.97;;;17.00;99.90;;;;;;4999313;28;20180;-82
2021/08/23 01:09:07;;;;;;;4.17;2.93;;;16.80;99.90;;;;;;5000038;28;20261;-82
2021/08/23 01:11:41;;;;;;;3.27;2.97;;;16.70;99.90;;;;;;5000441;28;20273;-82
2021/08/23 01:14:08;;;;;;;3.77;3.00;;;16.70;99.90;;;;;;4999854;28;20698;-82
2021/08/23 01:16:34;;;;;;;3.60;2.83;;;16.50;99.90;;;;;;5000115;28;20172;-81
2021/08/23 01:19:00;;;;;;;3.33;2.80;;;16.70;99.90;;;;;;4999360;28;20299;-82
2021/08/23 01:21:28;;;;;;;4.17;2.93;;;16.70;99.90;;;;;;4998323;28;20287;-81
2021/08/23 01:23:55;;;;;;;4.77;2.97;;;16.80;99.90;;;;;;4999601;28;20302;-82
2021/08/23 01:26:28;;;;;;;3.97;3.23;;;16.90;99.90;;;;;;5000587;28;20179;-82
2021/08/23 01:29:17;;;;;;;3.93;2.70;;;16.90;99.90;;;;;;4999818;28;20188;-82
2021/08/23 01:32:19;;;;;;;3.80;2.40;;;16.90;99.90;;;;;;4999049;28;20206;-82
2021/08/23 01:34:45;;;;;;;2.70;2.50;;;17.00;99.90;;;;;;4999631;28;20649;-82
2021/08/23 01:37:13;;;;;;;5.40;2.50;;;16.90;99.90;;;;;;4997278;28;20264;-81
2021/08/23 01:39:40;;;;;;;3.17;2.30;;;16.90;99.90;;;;;;4999976;28;20168;-82
2021/08/23 01:42:06;;;;;;;3.47;2.50;;;16.80;99.90;;;;;;4998374;28;20192;-82
2021/08/23 01:44:31;;;;;;;3.77;2.87;;;16.70;99.90;;;;;;4999668;28;20178;-82
2021/08/23 01:46:57;;;;;;;3.00;2.80;;;16.70;99.90;;;;;;4999558;28;20261;-81
2021/08/23 01:49:23;;;;;;;3.83;2.70;;;16.60;99.90;;;;;;4999965;28;20198;-82
2021/08/23 01:51:48;;;;;;;4.70;2.63;;;16.60;99.90;;;;;;4999569;28;20678;-81
2021/08/23 01:54:14;;;;;;;4.53;2.70;;;17.20;99.90;;;;;;5000488;28;20175;-82
2021/08/23 01:56:40;;;;;;;3.57;2.80;;;16.60;99.90;;;;;;4997808;28;20186;-81
2021/08/23 01:59:05;;;;;;;4.17;2.53;;;16.60;99.90;;;;;;4999699;28;20643;-82
2021/08/23 02:01:31;;;;;;;5.73;3.13;;;16.60;99.90;;;;;;5000053;28;20721;-82
2021/08/23 02:03:57;;;;;;;3.40;3.10;;;16.70;99.90;;;;;;4999501;28;20194;-82
2021/08/23 02:06:24;;;;;;;3.77;2.80;;;16.70;99.90;;;;;;4999834;28;20182;-81
2021/08/23 02:08:50;;;;;;;4.33;3.50;;;16.60;99.90;;;;;;5000609;28;20197;-82
2021/08/23 02:11:16;;;;;;;3.23;2.93;;;16.50;99.90;;;;;;5002487;28;20187;-82
2021/08/23 02:13:42;;;;;;;3.07;2.80;;;16.50;99.90;;;;;;5003391;28;20171;-82
2021/08/23 02:16:07;;;;;;;2.90;2.70;;;16.50;99.90;;;;;;5003303;28;20529;-81
2021/08/23 02:18:33;;;;;;;4.23;2.90;;;16.50;99.90;;;;;;5004230;28;20562;-81
2021/08/23 02:20:59;;;;;;;4.63;2.80;;;;;;;;;;5002814;28;20259;-82
2021/08/23 02:23:25;;;;;;;4.60;2.47;;;16.40;99.90;;;;;;5005264;28;20197;-82
2021/08/23 02:25:52;;;;;;;3.10;2.70;;;16.50;99.90;;;;;;5006601;28;20637;-81
2021/08/23 02:28:17;;;;;;;3.30;2.77;;;16.40;99.90;;;;;;5006657;28;20178;-82
2021/08/23 02:30:44;;;;;;;3.43;2.63;;;16.30;99.90;;;;;;5004860;28;20232;-81
2021/08/23 02:33:10;;;;;;;2.80;2.60;;;16.40;99.90;;;;;;5004675;28;20193;-81
2021/08/23 02:35:35;;;;;;;2.97;2.70;;;16.40;99.90;;;;;;5004779;28;20267;-81
2021/08/23 02:38:01;;;;;;;2.90;2.30;;;16.30;99.90;;;;;;5005310;28;20196;-81
2021/08/23 02:40:27;;;;;;;3.10;2.90;;;16.30;99.90;;;;;;5004581;28;20209;-81
2021/08/23 02:42:52;;;;;;;3.70;2.90;;;16.20;99.90;;;;;;5005292;28;20326;-81
2021/08/23 02:45:18;;;;;;;4.73;3.23;;;16.20;99.90;;;;;;5004523;28;20316;-81
2021/08/23 02:47:43;;;;;;;3.23;2.80;;;16.00;99.90;;;;;;5004581;28;20176;-81
2021/08/23 02:50:10;;;;;;;3.33;2.70;;;16.00;99.90;;;;;;5002509;28;20187;-81
2021/08/23 02:52:37;;;;;;;2.87;2.50;;;16.00;99.90;;;;;;5002688;28;20196;-81
2021/08/23 02:55:04;;;;;;;3.80;3.40;;;15.80;99.90;;;;;;5002045;28;20641;-81
2021/08/23 02:57:29;;;;;;;3.10;2.80;;;15.90;99.90;;;;;;5001951;28;20186;-81
2021/08/23 02:59:55;;;;;;;3.30;3.00;;;16.00;99.90;;;;;;5003034;28;20206;-81
2021/08/23 03:02:21;;;;;;;3.13;2.83;;;15.90;99.90;;;;;;5003887;28;20272;-81
2021/08/23 03:04:46;;;;;;;3.20;2.90;;;15.90;99.90;;;;;;5001180;28;20234;-81
2021/08/23 03:07:12;;;;;;;3.47;3.13;;;15.90;99.90;;;;;;5001181;28;20239;-81
2021/08/23 03:09:38;;;;;;;3.77;2.87;;;15.70;99.90;;;;;;5002919;28;20185;-81
2021/08/23 03:12:04;;;;;;;5.37;3.13;;;15.70;99.90;;;;;;5004118;28;20201;-81
2021/08/23 03:14:29;;;;;;;3.93;3.30;;;15.80;99.90;;;;;;5003003;28;20231;-81
2021/08/23 03:16:55;;;;;;;3.47;3.03;;;15.80;99.90;;;;;;5003931;28;20624;-80
2021/08/23 03:19:21;;;;;;;3.23;2.93;;;15.70;99.90;;;;;;5003494;28;20235;-81
2021/08/23 03:21:46;;;;;;;6.30;3.27;;;15.70;99.90;;;;;;5002815;28;20188;-81
2021/08/23 03:24:12;;;;;;;4.50;2.90;;;15.70;99.90;;;;;;5003067;28;20239;-81
2021/08/23 03:26:38;;;;;;;3.90;2.90;;;15.60;99.90;;;;;;5000295;28;20176;-81
2021/08/23 03:29:04;;;;;;;3.60;3.20;;;15.70;99.90;;;;;;5002372;28;20527;-81
2021/08/23 03:31:31;;;;;;;4.03;2.93;;;15.60;99.90;;;;;;5001078;28;20234;-82
2021/08/23 03:33:57;;;;;;;6.30;3.57;;;15.60;99.90;;;;;;5001550;28;20189;-81
2021/08/23 03:36:22;;;;;;;3.17;2.87;;;15.60;99.90;;;;;;4999735;28;20277;-81
2021/08/23 03:38:48;;;;;;;4.53;2.83;;;15.60;99.90;;;;;;5001625;28;20217;-81
2021/08/23 03:41:15;;;;;;;5.13;3.07;;;15.50;99.90;;;;;;4998938;28;20192;-81
2021/08/23 03:43:41;;;;;;;2.83;2.53;;;15.50;99.90;;;;;;4998961;28;20554;-81
2021/08/23 03:46:07;;;;;;;4.63;2.90;;;15.50;99.90;;;;;;5000462;28;20168;-81
2021/08/23 03:48:32;;;;;;;3.00;2.70;;;15.60;99.90;;;;;;5000802;28;20173;-81
2021/08/23 03:50:58;;;;;;;3.30;2.70;;;15.60;99.90;;;;;;5001023;28;20647;-81
2021/08/23 03:53:23;;;;;;;2.80;2.50;;;15.60;99.90;;;;;;4999898;28;20193;-81
2021/08/23 03:55:49;;;;;;;3.40;2.60;;;15.60;99.90;;;;;;4999516;28;20173;-81
2021/08/23 03:58:15;;;;;;;3.10;2.80;;;15.60;99.90;;;;;;5000417;28;20168;-81
2021/08/23 04:00:40;;;;;;;2.70;2.50;;;15.60;99.90;;;;;;5000089;28;20271;-81
2021/08/23 04:03:06;;;;;;;2.83;2.53;;;15.60;99.90;;;;;;4999514;28;20169;-81
2021/08/23 04:05:32;;;;;;;3.37;2.87;;;15.50;99.90;;;;;;4998187;28;20199;-81
2021/08/23 04:07:57;;;;;;;2.80;2.50;;;15.50;99.90;;;;;;4999833;28;20545;-81
2021/08/23 04:10:23;;;;;;;2.57;2.37;;;15.50;99.90;;;;;;4999729;28;20172;-81
2021/08/23 04:12:48;;;;;;;3.30;2.40;;;15.40;99.90;;;;;;5001255;28;20583;-81
2021/08/23 04:15:14;;;;;;;4.23;2.60;;;15.40;99.90;;;;;;5000213;28;20231;-81
2021/08/23 04:17:40;;;;;;;3.47;2.60;;;15.30;99.90;;;;;;4997576;28;20319;-80
2021/08/23 04:20:06;;;;;;;2.70;2.50;;;15.20;99.90;;;;;;4999267;28;20218;-81
2021/08/23 04:22:31;;;;;;;2.70;2.50;;;15.10;99.90;;;;;;4998820;28;20198;-81
2021/08/23 04:24:57;;;;;;;2.60;2.40;;;15.10;99.90;;;;;;4999210;28;20168;-81
2021/08/23 04:27:23;;;;;;;2.53;2.13;;;14.90;99.90;;;;;;4998112;28;20172;-81
2021/08/23 04:29:49;;;;;;;2.63;2.43;;;14.50;99.90;;;;;;4999281;28;20206;-81
2021/08/23 04:32:15;;;;;;;2.37;2.17;;;14.30;99.90;;;;;;4996560;28;20211;-81
2021/08/23 04:34:40;;;;;;;2.63;2.33;;;14.50;99.90;;;;;;4997767;28;20168;-81
2021/08/23 04:37:06;;;;;;;2.40;2.20;;;14.60;99.90;;;;;;4997538;28;20250;-81
2021/08/23 04:39:32;;;;;;;3.00;2.60;;;14.70;99.90;;;;;;4998250;28;20222;-81
2021/08/23 04:41:58;;;;;;;2.27;2.03;;;14.70;99.90;;;;;;4996900;28;20187;-80
2021/08/23 04:44:24;;;;;;;2.83;2.47;;;14.70;99.90;;;;;;4996697;28;20711;-79
2021/08/23 04:46:50;;;;;;;3.83;2.50;;;14.70;99.90;;;;;;4995563;28;20253;-81
2021/08/23 04:49:16;;;;;;;2.63;2.43;;;14.60;99.90;;;;;;4995850;28;20262;-81
2021/08/23 04:51:43;;;;;;;2.57;2.37;;;14.60;99.90;;;;;;4995626;28;20199;-81
2021/08/23 04:54:08;;;;;;;3.17;2.27;;;14.70;99.90;;;;;;4997584;28;20207;-81
2021/08/23 04:56:34;;;;;;;2.30;2.00;;;14.70;99.90;;;;;;4999064;28;20172;-81
2021/08/23 04:59:00;;;;;;;2.57;2.37;;;14.70;99.90;;;;;;4997868;28;20204;-81
2021/08/23 05:01:25;;;;;;;3.13;2.33;;;14.70;99.90;;;;;;4999911;28;20188;-81
2021/08/23 05:03:51;;;;;;;4.37;2.60;;;14.60;99.90;;;;;;4998659;28;20176;-81
2021/08/23 05:06:17;;;;;;;4.30;2.40;;;14.60;99.90;;;;;;4998346;28;20537;-81
2021/08/23 05:08:42;;;;;;;3.37;2.60;;;14.60;99.90;;;;;;5000443;28;20168;-81
2021/08/23 05:11:08;;;;;;;2.70;2.40;;;14.30;99.90;;;;;;5001102;28;20192;-81
2021/08/23 05:13:34;;;;;;;2.60;2.40;;;14.40;99.90;;;;;;5002200;28;20178;-81
2021/08/23 05:16:00;;;;;;;4.97;2.70;;;14.50;99.90;;;;;;4999958;28;20196;-81
2021/08/23 05:18:25;;;;;;;2.77;2.57;;;14.50;99.90;;;;;;5000734;28;20221;-81
2021/08/23 05:20:51;;;;;;;2.93;2.20;;;14.60;99.90;;;;;;5001180;28;20247;-81
2021/08/23 05:23:17;;;;;;;3.77;2.40;;;14.70;99.90;;;;;;4999621;28;20175;-81
2021/08/23 05:25:43;;;;;;;3.80;2.67;;;14.60;99.90;;;;;;4999492;28;20178;-81
2021/08/23 05:28:08;;;;;;;3.07;2.37;;;14.80;99.90;;;;;;5000078;28;20697;-81
2021/08/23 05:30:34;;;;;;;3.07;2.40;;;14.60;99.90;;;;;;5001251;28;20183;-81
2021/08/23 05:33:00;;;;;;;2.87;2.30;;;14.50;99.90;;;;;;5002948;28;20164;-81
2021/08/23 05:35:26;;;;;;;3.77;2.53;;;14.60;99.90;;;;;;4999089;28;20238;-81
2021/08/23 05:37:52;;;;;;;2.77;2.57;;;14.80;99.90;;;;;;4999781;28;20172;-81
2021/08/23 05:40:22;;;;;;;2.60;2.40;;;14.80;99.90;;;;;;4998046;28;20200;-80
2021/08/23 05:42:51;;;;;;;2.73;2.53;;;14.90;99.90;;;;;;4999139;28;20237;-81
2021/08/23 05:45:17;;;;;;;5.47;2.53;;;14.90;99.90;;;;;;4999630;28;20172;-81
2021/08/23 05:47:43;;;;;;;3.63;2.87;;;14.90;99.90;;;;;;5001638;28;20176;-81
2021/08/23 05:50:09;;;;;;;6.00;3.40;;;14.90;99.90;;;;;;5001100;28;20172;-81
2021/08/23 05:52:35;;;;;;;4.73;2.97;;;14.90;99.90;;;;;;5003165;28;20200;-81
2021/08/23 05:55:00;;;;;;;4.03;2.90;;;15.00;99.90;;;;;;5002415;28;20521;-81
2021/08/23 05:57:27;;;;;;;2.87;2.67;;;15.00;99.90;;;;;;5002659;28;20183;-81
2021/08/23 05:59:53;;;;;;;4.07;2.43;;;15.10;99.90;;;;;;5003225;28;20195;-81
2021/08/23 06:02:19;;;;;;;3.23;2.10;;;15.10;99.90;;;;;;5002624;28;20198;-82
2021/08/23 06:04:45;;;;;;;3.03;2.83;;;15.20;99.90;;;;;;5001755;28;20678;-81
2021/08/23 06:07:10;;;;;;;3.13;2.87;;;15.20;99.90;;;;;;4999882;28;20172;-81
2021/08/23 06:09:36;;;;;;;2.50;2.30;;;15.20;99.90;;;;;;5001290;28;20174;-81
2021/08/23 06:12:02;;;;;;;6.30;2.30;;;15.20;99.90;;;;;;5001510;28;20230;-81
2021/08/23 06:14:28;;;;;;;2.33;2.07;;;15.20;99.90;;;;;;5001469;28;20175;-81
2021/08/23 06:16:53;;;;;;;3.57;2.30;;;15.30;99.90;;;;;;5001991;28;20493;-81
2021/08/23 06:19:19;;;;;;;3.47;2.60;;;15.30;99.90;;;;;;5002211;28;20204;-81
2021/08/23 06:21:45;;;;;;;3.93;2.90;;;15.40;99.90;;;;;;5002083;28;20659;-81
2021/08/23 06:24:11;;;;;;;3.63;2.33;;;15.40;99.90;;;;;;5002165;28;20183;-81
2021/08/23 06:26:37;;;;;;;3.57;2.70;;;15.40;99.90;;;;;;5000757;28;20176;-81
2021/08/23 06:29:03;;;;;;;3.13;2.83;;;15.50;99.90;;;;;;5001461;28;20548;-81
2021/08/23 06:31:28;;;;;;;4.57;3.97;;;15.60;99.90;;;;;;5004783;28;20298;-81
2021/08/23 06:33:54;;;;;;;4.17;3.17;;;15.70;99.90;;;;;;5002014;28;20172;-81
2021/08/23 06:36:20;;;;;;;4.77;3.83;;;15.80;99.90;;;;;;5000024;28;20181;-81
2021/08/23 06:38:45;;;;;;;4.60;3.73;;;15.80;99.90;;;;;;4999274;28;20633;-81
2021/08/23 06:41:16;;;;;;;3.33;3.03;;;15.80;99.90;;;;;;5000022;28;20291;-81
2021/08/23 06:43:41;;;;;;;4.10;3.50;;;15.80;99.90;;;;;;5000600;28;20203;-82
2021/08/23 06:46:07;;;;;;;4.23;3.40;;;16.00;99.90;;;;;;5001126;28;20171;-81
2021/08/23 06:48:33;;;;;;;3.67;3.00;;;15.90;99.90;;;;;;5002091;28;20169;-81
2021/08/23 06:50:58;;;;;;;3.00;2.70;;;15.90;99.90;;;;;;4999138;28;20287;-81
2021/08/23 06:53:24;;;;;;;5.63;2.80;;;16.00;99.90;;;;;;5000736;28;20178;-81
2021/08/23 06:55:50;;;;;;;4.90;2.63;;;16.00;99.90;;;;;;5000644;28;20179;-81
2021/08/23 06:58:15;;;;;;;4.10;2.70;;;16.00;99.90;;;;;;5000844;28;20179;-81
2021/08/23 07:00:41;;;;;;;2.90;2.33;;;16.20;99.90;;;;;;4998765;28;20650;-82
2021/08/23 07:03:06;;;;;;;5.53;2.80;;;16.30;99.90;;;;;;4998986;28;20181;-81
2021/08/23 07:05:32;;;;;;;6.27;2.80;;;16.50;99.90;;;;;;4999134;28;20167;-81
2021/08/23 07:07:58;;;;;;;3.23;2.73;;;16.50;99.90;;;;;;4998546;28;20548;-81
2021/08/23 07:10:24;;;;;;;4.23;3.03;;;16.40;99.90;;;;;;4999365;28;20729;-81
2021/08/23 07:12:49;;;;;;;46.83;23.10;;;16.40;99.90;;;;;;4998540;28;20208;-81
2021/08/23 07:15:15;;;;;;;32.47;16.63;;;16.50;99.90;;;;;;4998751;28;20262;-81
2021/08/23 07:17:40;;;;;;;8.10;5.60;;;16.60;99.90;;;;;;4998256;28;20269;-82
2021/08/23 07:20:07;;;;;;;2.93;2.60;;;16.60;99.90;;;;;;4998044;28;20296;-81
2021/08/23 07:22:32;;;;;;;6.03;3.80;;;16.50;99.90;;;;;;4998399;28;20196;-81
2021/08/23 07:24:58;;;;;;;11.13;10.10;;;16.50;99.90;;;;;;4998502;28;20180;-81
2021/08/23 07:27:23;;;;;;;8.00;7.20;;;16.60;99.90;;;;;;4998140;28;20221;-81
2021/08/23 07:29:49;;;;;;;4.37;3.00;;;16.60;99.90;;;;;;4999476;28;20206;-81
2021/08/23 07:32:15;;;;;;;4.47;2.93;;;16.50;99.90;;;;;;5000565;28;20211;-81
2021/08/23 07:34:41;;;;;;;4.33;2.93;;;16.60;99.90;;;;;;5000979;28;20169;-81
2021/08/23 07:37:06;;;;;;;4.17;3.50;;;16.50;99.90;;;;;;5000613;28;20246;-81
2021/08/23 07:39:32;;;;;;;6.50;3.30;;;16.50;99.90;;;;;;5002177;28;20286;-81
2021/08/23 07:41:58;;;;;;;3.70;3.27;;;16.40;99.90;;;;;;5001607;28;20234;-81
2021/08/23 07:44:24;;;;;;;4.93;3.33;;;16.50;99.90;;;;;;5002481;28;20173;-81
2021/08/23 07:46:49;;;;;;;5.80;2.93;;;16.60;99.90;;;;;;4998184;28;20214;-81
2021/08/23 07:49:15;;;;;;;4.13;2.97;;;16.60;99.90;;;;;;5000240;28;20176;-81
2021/08/23 07:51:40;;;;;;;4.33;3.30;;;16.60;99.90;;;;;;4998153;28;20247;-81
2021/08/23 07:54:06;;;;;;;4.93;4.43;;;16.80;99.90;;;;;;4999253;28;20171;-81
2021/08/23 07:56:32;;;;;;;4.47;3.17;;;16.80;99.90;;;;;;4999240;28;20623;-81
2021/08/23 07:58:58;;;;;;;5.50;2.60;;;16.90;99.90;;;;;;4999587;28;20198;-81
2021/08/23 08:01:26;;;;;;;3.10;2.73;;;16.90;99.90;;;;;;4998719;28;20196;-81
2021/08/23 08:03:52;;;;;;;6.03;3.27;;;16.90;99.90;;;;;;4999283;28;20205;-81
2021/08/23 08:06:18;;;;;;;2.73;2.53;;;17.00;99.90;;;;;;4997831;28;20176;-81
2021/08/23 08:08:45;;;;;;;2.43;2.23;;;17.00;99.90;;;;;;4997666;28;20543;-81
2021/08/23 08:11:10;;;;;;;3.03;2.40;;;17.10;99.90;;;;;;4998740;28;20241;-81
2021/08/23 08:13:36;;;;;;;3.10;2.50;;;17.20;99.90;;;;;;4999736;28;20175;-81
2021/08/23 08:16:02;;;;;;;3.07;2.47;;;17.40;99.90;;;;;;4999286;28;20182;-81
2021/08/23 08:18:28;;;;;;;2.67;2.47;;;17.50;99.90;;;;;;4997441;28;20183;-81
2021/08/23 08:20:53;;;;;;;3.10;2.30;;;17.50;99.90;;;;;;4999475;28;20686;-81
2021/08/23 08:23:19;;;;;;;2.73;2.03;;;17.50;99.90;;;;;;5001024;28;20532;-81
2021/08/23 08:25:45;;;;;;;2.80;2.47;;;17.60;99.90;;;;;;4998888;28;20268;-81
2021/08/23 08:28:11;;;;;;;4.47;2.80;;;17.50;99.90;;;;;;5000716;28;20684;-81
2021/08/23 08:30:38;;;;;;;3.83;2.57;;;17.40;99.90;;;;;;4999865;28;20201;-81
2021/08/23 08:33:04;;;;;;;4.17;2.60;;;17.60;99.90;;;;;;4998521;28;20161;-82
2021/08/23 08:35:30;;;;;;;3.30;2.37;;;17.70;99.90;;;;;;4998691;28;20262;-81
2021/08/23 08:37:56;;;;;;;3.20;2.50;;;17.80;99.90;;;;;;4997906;28;20176;-81
2021/08/23 08:40:23;;;;;;;2.47;2.20;;;18.00;99.90;;;;;;4999226;28;20298;-81
2021/08/23 08:42:49;;;;;;;4.43;2.40;;;18.10;99.90;;;;;;4999892;28;20654;-81
2021/08/23 08:45:14;;;;;;;2.40;2.20;;;18.20;99.90;;;;;;4998230;28;20172;-81
2021/08/23 08:47:42;;;;;;;2.30;2.07;;;18.30;99.90;;;;;;5000000;28;20638;-81
2021/08/23 08:50:10;;;;;;;4.13;2.20;;;18.40;99.90;;;;;;4997836;28;20241;-81
2021/08/23 08:52:38;;;;;;;2.67;2.47;;;18.50;99.90;;;;;;5000213;28;20188;-81
2021/08/23 08:55:07;;;;;;;3.00;2.30;;;18.60;99.90;;;;;;5000279;28;20167;-81
2021/08/23 08:57:32;;;;;;;2.80;2.40;;;18.50;99.90;;;;;;5000849;28;20179;-81
2021/08/23 08:59:58;;;;;;;2.27;2.07;;;18.50;99.90;;;;;;5000451;28;20260;-81
2021/08/23 09:02:24;;;;;;;2.37;2.17;;;18.60;99.90;;;;;;5000847;28;20180;-81
2021/08/23 09:04:49;;;;;;;3.23;1.80;;;18.70;99.90;;;;;;5000721;28;20176;-81
2021/08/23 09:07:15;;;;;;;2.93;1.90;;;18.90;99.90;;;;;;4998557;28;20183;-81
2021/08/23 09:09:41;;;;;;;2.20;1.80;;;19.00;99.90;;;;;;4999317;28;20172;-81
2021/08/23 09:12:12;;;;;;;2.53;1.70;;;19.10;99.90;;;;;;4999612;28;20746;-82
2021/08/23 09:14:49;;;;;;;2.20;1.80;;;19.00;99.90;;;;;;5001173;28;20570;-82
2021/08/23 09:17:15;;;;;;;2.03;1.50;;;19.00;99.90;;;;;;5001467;28;20171;-82
2021/08/23 09:19:41;;;;;;;3.50;1.93;;;19.00;99.90;;;;;;5002005;28;20295;-82
2021/08/23 09:22:09;;;;;;;1.90;1.50;;;19.10;99.90;;;;;;5003678;28;20221;-82
2021/08/23 09:24:37;;;;;;;4.23;1.90;;;19.30;99.90;;;;;;5004111;28;20172;-82
2021/08/23 09:27:06;;;;;;;3.67;1.60;;;19.40;99.90;;;;;;5001191;28;20265;-82
2021/08/23 09:29:55;;;;;;;1.37;1.27;;;19.50;99.90;;;;;;5001469;28;20222;-82
2021/08/23 09:32:29;;;;;;;2.53;1.57;;;19.60;99.90;;;;;;5001696;28;20207;-82
2021/08/23 09:34:56;;;;;;;2.87;1.23;;;19.80;99.90;;;;;;4998586;28;20218;-82
2021/08/23 09:37:27;;;;;;;1.10;1.00;;;19.90;99.90;;;;;;5000043;28;20175;-82
2021/08/23 09:39:54;;;;;;;2.80;1.03;;;20.00;99.90;;;;;;5001909;28;20223;-82
2021/08/23 09:42:26;;;;;;;1.70;1.30;;;20.20;99.90;;;;;;5003009;28;20249;-82
2021/08/23 09:44:53;;;;;;;4.43;1.50;;;20.30;99.90;;;;;;5000919;28;20180;-82
2021/08/23 09:47:30;;;;;;;4.30;1.37;;;20.40;99.90;;;;;;5000954;28;20719;-82
2021/08/23 09:49:56;;;;;;;1.60;1.07;;;20.40;99.90;;;;;;5001546;28;20160;-82
2021/08/23 09:52:36;;;;;;;1.80;1.10;;;20.60;99.90;;;;;;5001694;28;20216;-82
2021/08/23 09:55:05;;;;;;;2.53;1.10;;;20.70;99.90;;;;;;5003508;28;20156;-83
2021/08/23 09:57:34;;;;;;;1.47;1.07;;;20.80;99.90;;;;;;5005814;28;20195;-82
2021/08/23 10:00:01;;;;;;;1.80;0.93;;;20.70;99.90;;;;;;5004539;28;20239;-83
2021/08/23 10:02:27;;;;;;;1.43;1.23;;;20.90;99.90;;;;;;5003724;28;20192;-82
2021/08/23 10:04:55;;;;;;;2.10;1.10;;;20.90;99.90;;;;;;5003605;28;20180;-83
2021/08/23 10:07:22;;;;;;;2.03;1.07;;;20.90;99.90;;;;;;5002737;28;20255;-83
2021/08/23 10:09:49;;;;;;;1.87;1.33;;;20.90;99.90;;;;;;5002477;28;20171;-82
2021/08/23 10:12:14;;;;;;;1.87;1.33;;;21.00;99.90;;;;;;5003120;28;20609;-82
2021/08/23 10:14:43;;;;;;;2.63;1.60;;;21.10;99.90;;;;;;5003843;28;20230;-82
2021/08/23 10:17:09;;;;;;;1.90;1.30;;;21.20;99.90;;;;;;5003198;28;20259;-82
2021/08/23 10:19:36;;;;;;;2.67;1.00;;;21.10;99.90;;;;;;5003591;28;20689;-82
2021/08/23 10:22:03;;;;;;;1.67;1.10;;;21.00;99.90;;;;;;5003237;28;20191;-83
2021/08/23 10:24:30;;;;;;;1.73;0.97;;;21.00;99.90;;;;;;5002331;28;20168;-82
2021/08/23 10:26:57;;;;;;;1.93;0.73;;;21.00;99.90;;;;;;5002859;28;20167;-82
2021/08/23 10:29:23;;;;;;;2.00;1.30;;;21.00;99.90;;;;;;5002464;28;20171;-82
2021/08/23 10:38:41;;;;;;;1.90;1.13;;;21.00;99.90;;;;;;4964313;28;20187;-83
2021/08/23 10:41:16;;;;;;;5.00;1.40;;;20.80;99.90;;;;;;5000073;28;20220;-82
2021/08/23 10:47:18;;;;;;;1.90;1.00;;;20.50;99.90;;;;;;4977164;28;20186;-82
2021/08/23 10:49:53;;;;;;;2.80;1.10;;;20.50;99.90;;;;;;5002814;28;20231;-82
2021/08/23 10:52:43;;;;;;;2.90;1.10;;;20.40;99.90;;;;;;5003224;28;20187;-82
2021/08/23 10:55:25;;;;;;;1.57;0.90;;;20.40;99.90;;;;;;5000738;28;20178;-82
2021/08/23 10:58:10;;;;;;;2.00;1.10;;;20.60;99.90;;;;;;4982979;28;20174;-82
2021/08/23 11:01:02;;;;;;;3.50;1.10;;;20.80;99.90;;;;;;4982846;28;20200;-82
2021/08/23 11:03:33;;;;;;;1.63;1.03;;;21.10;99.90;;;;;;4995550;28;20184;-82
2021/08/23 11:06:08;;;;;;;3.10;0.83;;;21.30;99.90;;;;;;5000945;28;20179;-82
2021/08/23 11:08:42;;;;;;;1.40;1.23;;;21.50;99.90;;;;;;5001497;28;20675;-82
2021/08/23 11:11:33;;;;;;;2.37;1.10;;;21.80;99.90;;;;;;4982796;28;20195;-82
2021/08/23 11:14:20;;;;;;;1.40;0.90;;;21.60;99.90;;;;;;4982511;28;20168;-82
2021/08/23 11:17:35;;;;;;;1.40;1.10;;;21.70;99.90;;;;;;4981818;28;20258;-82
2021/08/23 11:20:11;;;;;;;1.63;1.00;;;21.60;99.90;;;;;;4924996;28;20215;-82
2021/08/23 11:22:48;;;;;;;1.93;1.53;;;21.70;99.90;;;;;;4999474;28;20270;-82
2021/08/23 11:25:16;;;;;;;4.63;1.27;;;21.60;99.90;;;;;;4982187;28;20210;-82
2021/08/23 11:27:50;;;;;;;1.67;1.10;;;21.70;99.90;;;;;;4999713;28;20182;-83
2021/08/23 11:30:27;;;;;;;2.20;1.20;;;21.80;99.90;;;;;;4999796;28;20156;-82
2021/08/23 11:32:56;;;;;;;1.20;1.00;;;21.80;99.90;;;;;;4999872;28;20254;-82
2021/08/23 11:35:25;;;;;;;2.90;1.00;;;22.00;99.90;;;;;;5000166;28;20168;-83
2021/08/23 11:38:00;;;;;;;2.03;0.97;;;22.40;99.90;;;;;;4999790;28;20666;-82
2021/08/23 11:40:26;;;;;;;2.10;1.10;;;22.40;99.90;;;;;;4983882;28;20666;-82
2021/08/23 11:42:54;;;;;;;1.77;0.87;;;22.40;99.90;;;;;;4998411;28;20179;-82
2021/08/23 11:45:22;;;;;;;1.80;1.10;;;22.40;99.90;;;;;;4999525;28;20647;-82
2021/08/23 11:47:49;;;;;;;2.57;1.00;;;22.30;99.90;;;;;;4998822;28;20227;-82
2021/08/23 11:50:19;;;;;;;2.30;1.03;;;22.30;99.90;;;;;;4999567;28;20199;-82
2021/08/23 11:52:45;;;;;;;2.27;1.53;;;22.30;99.90;;;;;;4999500;28;20172;-82
2021/08/23 11:55:11;;;;;;;3.13;1.03;;;22.10;99.90;;;;;;4999739;28;20234;-82
2021/08/23 11:57:36;;;;;;;1.70;1.00;;;22.20;99.90;;;;;;4981679;28;20184;-82
2021/08/23 12:00:06;;;;;;;1.97;1.00;;;22.20;99.90;;;;;;4999306;28;20234;-83
2021/08/23 12:02:34;;;;;;;1.67;1.10;;;22.10;99.90;;;;;;4981571;28;20263;-81
2021/08/23 12:05:16;;;;;;;2.23;0.90;;;21.90;99.90;;;;;;4999346;28;20254;-82
2021/08/23 12:07:56;;;;;;;1.83;1.10;;;21.80;99.90;;;;;;4999457;28;20643;-82
2021/08/23 12:10:30;;;;;;;2.17;1.03;;;21.80;99.90;;;;;;4999531;28;20152;-83
2021/08/23 12:13:11;;;;;;;1.73;1.23;;;21.80;99.90;;;;;;4999418;28;20175;-82
2021/08/23 12:15:49;;;;;;;2.47;1.10;;;21.90;99.90;;;;;;4999466;28;20176;-82
2021/08/23 12:18:14;;;;;;;2.43;1.10;;;22.00;99.90;;;;;;4999229;28;20171;-82
2021/08/23 12:20:40;;;;;;;1.13;1.00;;;22.00;99.90;;;;;;4981766;28;20204;-83
2021/08/23 12:23:06;;;;;;;1.90;1.23;;;22.10;99.90;;;;;;4999566;28;20187;-83
2021/08/23 12:25:32;;;;;;;2.67;1.40;;;22.20;99.90;;;;;;4998380;28;20251;-83
2021/08/23 12:27:58;;;;;;;1.60;1.00;;;22.30;99.90;;;;;;4999498;28;20512;-83
2021/08/23 12:30:29;;;;;;;1.80;1.20;;;22.40;99.90;;;;;;5001146;28;20172;-84
2021/08/23 12:32:55;;;;;;;1.47;0.90;;;22.50;99.90;;;;;;4990585;23;20221;-84
2021/08/23 12:35:25;;;;;;;2.93;1.37;;;22.60;99.90;;;;;;4964820;28;20169;-82
2021/08/23 12:37:50;;;;;;;3.80;1.17;;;22.70;99.90;;;;;;4964831;28;20180;-82
2021/08/23 12:40:18;;;;;;;1.67;1.00;;;22.50;99.90;;;;;;4964199;29;20201;-82
2021/08/23 12:42:44;;;;;;;2.80;1.13;;;22.40;99.90;;;;;;4962781;29;20252;-83
2021/08/23 12:45:13;;;;;;;2.90;1.23;;;22.40;99.90;;;;;;4963111;29;20217;-82
2021/08/23 12:47:39;;;;;;;2.83;1.50;;;22.50;99.90;;;;;;4961774;29;20177;-82
2021/08/23 12:50:05;;;;;;;1.83;1.43;;;22.50;99.90;;;;;;4964036;29;20248;-82
2021/08/23 12:52:31;;;;;;;2.60;1.23;;;22.30;99.90;;;;;;4964660;29;20185;-82
2021/08/23 12:54:57;;;;;;;2.33;1.20;;;22.20;99.90;;;;;;4963626;28;20180;-81
2021/08/23 12:57:24;;;;;;;1.87;1.00;;;22.10;99.90;;;;;;4963010;29;20162;-81
2021/08/23 12:59:50;;;;;;;1.87;1.10;;;22.00;99.90;;;;;;4963310;29;20560;-82
2021/08/23 13:02:21;;;;;;;2.20;1.47;;;22.00;99.90;;;;;;4964057;29;20189;-81